sensor_id;sensor_type;location;lat;lon;timestamp;pressure;altitude;pressure_sealevel;temperature;humidity
9474;BME280;8865;47.636;7.692;2023-04-05T00:01:26;98692.97;;;1.93;100.00
9474;BME280;8865;47.636;7.692;2023-04-05T00:03:54;98692.28;;;1.90;100.00
9474;BME280;8865;47.636;7.692;2023-04-05T00:06:23;98683.69;;;1.89;100.00
9474;BME280;8865;47.636;7.692;2023-04-05T00:08:54;98690.66;;;1.87;100.00
9474;BME280;8865;47.636;7.692;2023-04-05T00:11:21;98681.19;;;1.88;100.00
9474;BME280;8865;47.636;7.692;2023-04-05T00:13:48;98682.16;;;1.85;100.00
9474;BME280;8865;47.636;7.692;2023-04-05T00:16:18;98690.59;;;1.89;100.00
9474;BME280;8865;47.636;7.692;2023-04-05T00:18:45;98684.53;;;1.90;100.00
9474;BME280;8865;47.636;7.692;2023-04-05T00:21:15;98687.03;;;1.91;100.00
9474;BME280;8865;47.636;7.692;2023-04-05T00:23:41;98688.72;;;1.92;100.00
9474;BME280;8865;47.636;7.692;2023-04-05T00:26:10;98689.84;;;1.87;100.00
9474;BME280;8865;47.636;7.692;2023-04-05T00:28:36;98685.63;;;1.84;100.00
9474;BME280;8865;47.636;7.692;2023-04-05T00:31:03;98683.25;;;1.79;100.00
9474;BME280;8865;47.636;7.692;2023-04-05T00:33:30;98686.03;;;1.75;100.00
9474;BME280;8865;47.636;7.692;2023-04-05T00:35:56;98681.72;;;1.75;100.00
9474;BME280;8865;47.636;7.692;2023-04-05T00:38:22;98683.38;;;1.76;100.00
9474;BME280;8865;47.636;7.692;2023-04-05T00:40:48;98682.41;;;1.79;100.00
9474;BME280;8865;47.636;7.692;2023-04-05T00:43:14;98681.59;;;1.78;100.00
9474;BME280;8865;47.636;7.692;2023-04-05T00:45:41;98680.59;;;1.81;100.00
9474;BME280;8865;47.636;7.692;2023-04-05T00:48:07;98677.88;;;1.84;100.00
9474;BME280;8865;47.636;7.692;2023-04-05T00:50:33;98682.00;;;1.88;100.00
9474;BME280;8865;47.636;7.692;2023-04-05T00:52:59;98682.00;;;1.88;100.00
9474;BME280;8865;47.636;7.692;2023-04-05T00:55:26;98676.97;;;1.85;100.00
9474;BME280;8865;47.636;7.692;2023-04-05T00:57:53;98686.47;;;1.85;100.00
9474;BME280;8865;47.636;7.692;2023-04-05T01:00:20;98681.31;;;1.85;100.00
9474;BME280;8865;47.636;7.692;2023-04-05T01:02:51;98674.41;;;1.85;100.00
9474;BME280;8865;47.636;7.692;2023-04-05T01:05:48;98670.06;;;1.86;100.00
9474;BME280;8865;47.636;7.692;2023-04-05T01:08:28;98664.81;;;1.87;100.00
9474;BME280;8865;47.636;7.692;2023-04-05T01:11:02;98665.69;;;1.88;100.00
9474;BME280;8865;47.636;7.692;2023-04-05T01:13:29;98672.50;;;1.89;100.00
9474;BME280;8865;47.636;7.692;2023-04-05T01:15:55;98662.19;;;1.89;100.00
9474;BME280;8865;47.636;7.692;2023-04-05T01:18:21;98658.84;;;1.87;100.00
9474;BME280;8865;47.636;7.692;2023-04-05T01:20:55;98663.09;;;1.88;100.00
9474;BME280;8865;47.636;7.692;2023-04-05T01:23:27;98658.00;;;1.86;100.00
9474;BME280;8865;47.636;7.692;2023-04-05T01:32:05;98643.59;;;1.81;100.00
9474;BME280;8865;47.636;7.692;2023-04-05T01:37:11;98640.19;;;1.80;100.00
9474;BME280;8865;47.636;7.692;2023-04-05T01:39:37;98634.09;;;1.81;100.00
9474;BME280;8865;47.636;7.692;2023-04-05T01:42:04;98632.25;;;1.85;100.00
9474;BME280;8865;47.636;7.692;2023-04-05T01:44:30;98630.63;;;1.82;100.00
9474;BME280;8865;47.636;7.692;2023-04-05T01:46:56;98628.06;;;1.82;100.00
9474;BME280;8865;47.636;7.692;2023-04-05T01:49:23;98616.88;;;1.82;100.00
9474;BME280;8865;47.636;7.692;2023-04-05T01:51:49;98624.50;;;1.85;100.00
9474;BME280;8865;47.636;7.692;2023-04-05T01:54:15;98620.16;;;1.85;100.00
9474;BME280;8865;47.636;7.692;2023-04-05T01:56:41;98620.09;;;1.87;100.00
9474;BME280;8865;47.636;7.692;2023-04-05T01:59:07;98620.09;;;1.87;100.00
9474;BME280;8865;47.636;7.692;2023-04-05T02:01:33;98620.09;;;1.87;100.00
9474;BME280;8865;47.636;7.692;2023-04-05T02:03:59;98626.16;;;1.86;100.00
9474;BME280;8865;47.636;7.692;2023-04-05T02:06:25;98617.44;;;1.88;100.00
9474;BME280;8865;47.636;7.692;2023-04-05T02:08:52;98616.63;;;1.88;100.00
9474;BME280;8865;47.636;7.692;2023-04-05T02:11:18;98608.06;;;1.86;100.00
9474;BME280;8865;47.636;7.692;2023-04-05T02:13:43;98610.72;;;1.84;100.00
9474;BME280;8865;47.636;7.692;2023-04-05T02:16:10;98605.69;;;1.81;100.00
9474;BME280;8865;47.636;7.692;2023-04-05T02:18:36;98605.00;;;1.77;100.00
9474;BME280;8865;47.636;7.692;2023-04-05T02:21:04;98601.00;;;1.70;100.00
9474;BME280;8865;47.636;7.692;2023-04-05T02:23:31;98605.34;;;1.70;100.00
9474;BME280;8865;47.636;7.692;2023-04-05T02:25:57;98601.16;;;1.67;100.00
9474;BME280;8865;47.636;7.692;2023-04-05T02:28:24;98606.44;;;1.64;100.00
9474;BME280;8865;47.636;7.692;2023-04-05T02:30:50;98598.00;;;1.60;100.00
9474;BME280;8865;47.636;7.692;2023-04-05T02:33:16;98604.28;;;1.55;100.00
9474;BME280;8865;47.636;7.692;2023-04-05T02:35:43;98610.38;;;1.54;100.00
9474;BME280;8865;47.636;7.692;2023-04-05T02:38:10;98602.75;;;1.51;100.00
9474;BME280;8865;47.636;7.692;2023-04-05T02:40:36;98607.13;;;1.49;100.00
9474;BME280;8865;47.636;7.692;2023-04-05T02:43:04;98602.16;;;1.44;100.00
9474;BME280;8865;47.636;7.692;2023-04-05T02:45:30;98600.56;;;1.41;100.00
9474;BME280;8865;47.636;7.692;2023-04-05T02:47:56;98602.34;;;1.39;100.00
9474;BME280;8865;47.636;7.692;2023-04-05T02:50:22;98591.34;;;1.36;100.00
9474;BME280;8865;47.636;7.692;2023-04-05T02:52:49;98596.56;;;1.34;100.00
9474;BME280;8865;47.636;7.692;2023-04-05T02:55:15;98600.97;;;1.32;100.00
9474;BME280;8865;47.636;7.692;2023-04-05T02:57:42;98599.41;;;1.28;100.00
9474;BME280;8865;47.636;7.692;2023-04-05T03:00:09;98598.00;;;1.21;100.00
9474;BME280;8865;47.636;7.692;2023-04-05T03:02:37;98587.81;;;1.18;100.00
9474;BME280;8865;47.636;7.692;2023-04-05T03:05:04;98579.28;;;1.16;100.00
9474;BME280;8865;47.636;7.692;2023-04-05T03:07:31;98583.56;;;1.17;100.00
9474;BME280;8865;47.636;7.692;2023-04-05T03:09:58;98584.59;;;1.13;100.00
9474;BME280;8865;47.636;7.692;2023-04-05T03:12:24;98584.84;;;1.06;100.00
9474;BME280;8865;47.636;7.692;2023-04-05T03:14:50;98584.84;;;1.06;100.00
9474;BME280;8865;47.636;7.692;2023-04-05T03:17:16;98585.81;;;1.04;100.00
9474;BME280;8865;47.636;7.692;2023-04-05T03:19:42;98590.13;;;1.03;100.00
9474;BME280;8865;47.636;7.692;2023-04-05T03:22:10;98584.19;;;1.01;100.00
9474;BME280;8865;47.636;7.692;2023-04-05T03:24:36;98585.09;;;1.00;100.00
9474;BME280;8865;47.636;7.692;2023-04-05T03:27:02;98586.81;;;1.00;100.00
9474;BME280;8865;47.636;7.692;2023-04-05T03:29:30;98595.53;;;0.97;100.00
9474;BME280;8865;47.636;7.692;2023-04-05T03:31:57;98587.88;;;0.96;100.00
9474;BME280;8865;47.636;7.692;2023-04-05T03:34:24;98591.41;;;0.93;100.00
9474;BME280;8865;47.636;7.692;2023-04-05T03:36:54;98581.16;;;0.92;100.00
9474;BME280;8865;47.636;7.692;2023-04-05T03:39:20;98589.72;;;0.92;100.00
9474;BME280;8865;47.636;7.692;2023-04-05T03:41:46;98591.53;;;0.90;100.00
9474;BME280;8865;47.636;7.692;2023-04-05T03:44:12;98589.09;;;0.87;100.00
9474;BME280;8865;47.636;7.692;2023-04-05T03:46:38;98585.88;;;0.82;100.00
9474;BME280;8865;47.636;7.692;2023-04-05T03:49:04;98586.13;;;0.76;100.00
9474;BME280;8865;47.636;7.692;2023-04-05T03:51:30;98583.66;;;0.73;100.00
9474;BME280;8865;47.636;7.692;2023-04-05T03:53:57;98583.72;;;0.71;100.00
9474;BME280;8865;47.636;7.692;2023-04-05T03:56:23;98585.50;;;0.69;100.00
9474;BME280;8865;47.636;7.692;2023-04-05T03:58:51;98582.03;;;0.70;100.00
9474;BME280;8865;47.636;7.692;2023-04-05T04:01:17;98579.47;;;0.70;100.00
9474;BME280;8865;47.636;7.692;2023-04-05T04:03:43;98587.25;;;0.68;100.00
9474;BME280;8865;47.636;7.692;2023-04-05T04:06:09;98574.44;;;0.67;100.00
9474;BME280;8865;47.636;7.692;2023-04-05T04:08:36;98582.16;;;0.67;100.00
9474;BME280;8865;47.636;7.692;2023-04-05T04:11:02;98584.81;;;0.65;100.00
9474;BME280;8865;47.636;7.692;2023-04-05T04:13:28;98580.59;;;0.63;100.00
9474;BME280;8865;47.636;7.692;2023-04-05T04:15:54;98572.94;;;0.61;100.00
9474;BME280;8865;47.636;7.692;2023-04-05T04:18:20;98581.53;;;0.62;100.00
9474;BME280;8865;47.636;7.692;2023-04-05T04:20:46;98572.09;;;0.61;100.00
9474;BME280;8865;47.636;7.692;2023-04-05T04:23:12;98579.13;;;0.57;100.00
9474;BME280;8865;47.636;7.692;2023-04-05T04:25:39;98585.25;;;0.55;100.00
9474;BME280;8865;47.636;7.692;2023-04-05T04:28:06;98577.56;;;0.53;100.00
9474;BME280;8865;47.636;7.692;2023-04-05T04:30:32;98570.78;;;0.50;100.00
9474;BME280;8865;47.636;7.692;2023-04-05T04:33:00;98576.13;;;0.46;100.00
9474;BME280;8865;47.636;7.692;2023-04-05T04:35:30;98582.19;;;0.45;100.00
9474;BME280;8865;47.636;7.692;2023-04-05T04:38:00;98584.16;;;0.38;100.00
9474;BME280;8865;47.636;7.692;2023-04-05T04:40:30;98573.91;;;0.37;100.00
9474;BME280;8865;47.636;7.692;2023-04-05T04:43:04;98581.94;;;0.29;100.00
9474;BME280;8865;47.636;7.692;2023-04-05T04:45:31;98582.81;;;0.29;100.00
9474;BME280;8865;47.636;7.692;2023-04-05T04:48:03;98588.84;;;0.28;100.00
9474;BME280;8865;47.636;7.692;2023-04-05T04:50:30;98589.63;;;0.30;100.00
9474;BME280;8865;47.636;7.692;2023-04-05T04:53:00;98593.13;;;0.29;100.00
9474;BME280;8865;47.636;7.692;2023-04-05T04:55:27;98588.84;;;0.28;100.00
9474;BME280;8865;47.636;7.692;2023-04-05T04:57:54;98592.31;;;0.27;100.00
9474;BME280;8865;47.636;7.692;2023-04-05T05:00:21;98594.06;;;0.27;100.00
9474;BME280;8865;47.636;7.692;2023-04-05T05:02:47;98602.72;;;0.24;100.00
9474;BME280;8865;47.636;7.692;2023-04-05T05:05:13;98601.06;;;0.23;100.00
9474;BME280;8865;47.636;7.692;2023-04-05T05:07:40;98595.75;;;0.28;100.00
9474;BME280;8865;47.636;7.692;2023-04-05T05:10:10;98607.72;;;0.29;100.00
9474;BME280;8865;47.636;7.692;2023-04-05T05:12:39;98608.56;;;0.29;100.00
9474;BME280;8865;47.636;7.692;2023-04-05T05:15:05;98614.66;;;0.27;100.00
9474;BME280;8865;47.636;7.692;2023-04-05T05:17:31;98618.94;;;0.28;100.00
9474;BME280;8865;47.636;7.692;2023-04-05T05:19:59;98621.50;;;0.28;100.00
9474;BME280;8865;47.636;7.692;2023-04-05T05:22:26;98616.28;;;0.29;100.00
9474;BME280;8865;47.636;7.692;2023-04-05T05:24:52;98618.00;;;0.29;100.00
9474;BME280;8865;47.636;7.692;2023-04-05T05:27:18;98618.81;;;0.31;100.00
9474;BME280;8865;47.636;7.692;2023-04-05T05:29:44;98626.31;;;0.37;100.00
9474;BME280;8865;47.636;7.692;2023-04-05T05:32:11;98618.53;;;0.39;100.00
9474;BME280;8865;47.636;7.692;2023-04-05T05:34:40;98615.03;;;0.40;100.00
9474;BME280;8865;47.636;7.692;2023-04-05T05:37:07;98607.09;;;0.44;100.00
9474;BME280;8865;47.636;7.692;2023-04-05T05:39:34;98616.47;;;0.47;100.00
9474;BME280;8865;47.636;7.692;2023-04-05T05:42:03;98618.09;;;0.49;100.00
9474;BME280;8865;47.636;7.692;2023-04-05T05:44:30;98624.91;;;0.50;100.00
9474;BME280;8865;47.636;7.692;2023-04-05T05:46:57;98619.41;;;0.38;100.00
9474;BME280;8865;47.636;7.692;2023-04-05T05:49:23;98618.75;;;0.32;100.00
9474;BME280;8865;47.636;7.692;2023-04-05T05:51:50;98612.75;;;0.32;100.00
9474;BME280;8865;47.636;7.692;2023-04-05T05:54:17;98620.41;;;0.33;100.00
9474;BME280;8865;47.636;7.692;2023-04-05T05:56:43;98622.81;;;0.38;100.00
9474;BME280;8865;47.636;7.692;2023-04-05T05:59:09;98628.22;;;0.54;100.00
9474;BME280;8865;47.636;7.692;2023-04-05T06:01:36;98627.84;;;0.63;100.00
9474;BME280;8865;47.636;7.692;2023-04-05T06:04:03;98628.19;;;0.76;100.00
9474;BME280;8865;47.636;7.692;2023-04-05T06:06:29;98631.09;;;0.89;100.00
9474;BME280;8865;47.636;7.692;2023-04-05T06:08:55;98631.53;;;1.00;100.00
9474;BME280;8865;47.636;7.692;2023-04-05T06:11:21;98640.56;;;1.11;100.00
9474;BME280;8865;47.636;7.692;2023-04-05T06:13:49;98638.38;;;1.22;100.00
9474;BME280;8865;47.636;7.692;2023-04-05T06:16:22;98635.41;;;1.31;100.00
9474;BME280;8865;47.636;7.692;2023-04-05T06:18:48;98624.88;;;1.36;100.00
9474;BME280;8865;47.636;7.692;2023-04-05T06:21:14;98631.59;;;1.40;100.00
9474;BME280;8865;47.636;7.692;2023-04-05T06:23:41;98627.00;;;1.47;100.00
9474;BME280;8865;47.636;7.692;2023-04-05T06:26:07;98635.44;;;1.50;100.00
9474;BME280;8865;47.636;7.692;2023-04-05T06:28:34;98630.63;;;1.63;100.00
9474;BME280;8865;47.636;7.692;2023-04-05T06:31:00;98630.75;;;1.79;100.00
9474;BME280;8865;47.636;7.692;2023-04-05T06:33:26;98631.91;;;1.92;100.00
9474;BME280;8865;47.636;7.692;2023-04-05T06:35:52;98627.91;;;2.04;100.00
9474;BME280;8865;47.636;7.692;2023-04-05T06:38:18;98629.69;;;2.23;100.00
9474;BME280;8865;47.636;7.692;2023-04-05T06:40:44;98623.94;;;2.35;100.00
9474;BME280;8865;47.636;7.692;2023-04-05T06:43:10;98627.81;;;2.44;100.00
9474;BME280;8865;47.636;7.692;2023-04-05T06:45:36;98628.25;;;2.54;100.00
9474;BME280;8865;47.636;7.692;2023-04-05T06:48:03;98627.31;;;2.55;100.00
9474;BME280;8865;47.636;7.692;2023-04-05T06:50:29;98624.59;;;2.58;100.00
9474;BME280;8865;47.636;7.692;2023-04-05T06:52:55;98620.88;;;2.63;100.00
9474;BME280;8865;47.636;7.692;2023-04-05T06:55:21;98623.09;;;2.71;100.00
9474;BME280;8865;47.636;7.692;2023-04-05T06:57:47;98627.06;;;2.78;100.00
9474;BME280;8865;47.636;7.692;2023-04-05T07:00:14;98630.41;;;2.80;100.00
9474;BME280;8865;47.636;7.692;2023-04-05T07:02:42;98624.00;;;2.70;100.00
9474;BME280;8865;47.636;7.692;2023-04-05T07:05:08;98620.94;;;2.62;100.00
9474;BME280;8865;47.636;7.692;2023-04-05T07:07:39;98625.72;;;2.52;100.00
9474;BME280;8865;47.636;7.692;2023-04-05T07:10:07;98624.72;;;2.55;100.00
9474;BME280;8865;47.636;7.692;2023-04-05T07:12:34;98617.47;;;2.63;100.00
9474;BME280;8865;47.636;7.692;2023-04-05T07:15:00;98624.56;;;2.77;100.00
9474;BME280;8865;47.636;7.692;2023-04-05T07:17:26;98622.34;;;2.86;100.00
9474;BME280;8865;47.636;7.692;2023-04-05T07:19:52;98628.06;;;2.76;100.00
9474;BME280;8865;47.636;7.692;2023-04-05T07:22:18;98626.94;;;2.81;100.00
9474;BME280;8865;47.636;7.692;2023-04-05T07:24:44;98628.50;;;2.66;100.00
9474;BME280;8865;47.636;7.692;2023-04-05T07:27:14;98623.94;;;2.72;100.00
9474;BME280;8865;47.636;7.692;2023-04-05T07:29:40;98635.00;;;2.56;100.00
9474;BME280;8865;47.636;7.692;2023-04-05T07:32:08;98628.72;;;2.62;100.00
9474;BME280;8865;47.636;7.692;2023-04-05T07:34:35;98625.16;;;2.64;100.00
9474;BME280;8865;47.636;7.692;2023-04-05T07:37:03;98629.38;;;2.84;100.00
9474;BME280;8865;47.636;7.692;2023-04-05T07:39:30;98628.38;;;3.04;100.00
9474;BME280;8865;47.636;7.692;2023-04-05T07:41:56;98633.19;;;3.12;100.00
9474;BME280;8865;47.636;7.692;2023-04-05T07:44:22;98628.63;;;3.35;100.00
9474;BME280;8865;47.636;7.692;2023-04-05T07:46:48;98638.28;;;3.49;100.00
9474;BME280;8865;47.636;7.692;2023-04-05T07:49:14;98627.38;;;3.42;100.00
9474;BME280;8865;47.636;7.692;2023-04-05T07:51:40;98631.63;;;3.43;100.00
9474;BME280;8865;47.636;7.692;2023-04-05T07:54:08;98637.72;;;3.42;100.00
9474;BME280;8865;47.636;7.692;2023-04-05T07:56:36;98631.69;;;3.59;100.00
9474;BME280;8865;47.636;7.692;2023-04-05T07:59:02;98640.47;;;3.56;100.00
9474;BME280;8865;47.636;7.692;2023-04-05T08:01:28;98635.94;;;3.60;100.00
9474;BME280;8865;47.636;7.692;2023-04-05T08:03:56;98633.22;;;3.79;100.00
9474;BME280;8865;47.636;7.692;2023-04-05T08:06:22;98639.28;;;3.96;100.00
9474;BME280;8865;47.636;7.692;2023-04-05T08:08:49;98638.88;;;4.03;100.00
9474;BME280;8865;47.636;7.692;2023-04-05T08:11:15;98639.53;;;3.91;100.00
9474;BME280;8865;47.636;7.692;2023-04-05T08:13:41;98638.38;;;4.13;100.00
9474;BME280;8865;47.636;7.692;2023-04-05T08:16:09;98632.72;;;4.06;100.00
9474;BME280;8865;47.636;7.692;2023-04-05T08:18:35;98633.41;;;4.25;100.00
9474;BME280;8865;47.636;7.692;2023-04-05T08:21:01;98627.72;;;4.35;100.00
9474;BME280;8865;47.636;7.692;2023-04-05T08:23:28;98630.63;;;4.44;100.00
9474;BME280;8865;47.636;7.692;2023-04-05T08:25:54;98625.34;;;4.46;100.00
9474;BME280;8865;47.636;7.692;2023-04-05T08:28:20;98625.16;;;4.65;100.00
9474;BME280;8865;47.636;7.692;2023-04-05T08:30:46;98627.66;;;4.82;100.00
9474;BME280;8865;47.636;7.692;2023-04-05T08:33:12;98626.16;;;4.78;100.00
9474;BME280;8865;47.636;7.692;2023-04-05T08:35:39;98621.88;;;5.08;100.00
9474;BME280;8865;47.636;7.692;2023-04-05T08:38:08;98619.53;;;5.33;98.18
9474;BME280;8865;47.636;7.692;2023-04-05T08:40:40;98617.13;;;5.45;91.63
9474;BME280;8865;47.636;7.692;2023-04-05T08:45:46;98619.81;;;5.43;87.75
9474;BME280;8865;47.636;7.692;2023-04-05T08:48:12;98620.88;;;5.55;88.40
9474;BME280;8865;47.636;7.692;2023-04-05T08:50:38;98622.00;;;5.80;83.54
9474;BME280;8865;47.636;7.692;2023-04-05T08:53:06;98619.47;;;6.21;84.35
9474;BME280;8865;47.636;7.692;2023-04-05T08:55:32;98622.84;;;6.51;74.95
9474;BME280;8865;47.636;7.692;2023-04-05T08:57:59;98623.66;;;6.24;71.95
9474;BME280;8865;47.636;7.692;2023-04-05T09:00:26;98625.03;;;6.57;67.26
9474;BME280;8865;47.636;7.692;2023-04-05T09:02:55;98620.34;;;6.49;64.06
9474;BME280;8865;47.636;7.692;2023-04-05T09:05:23;98618.38;;;6.80;62.89
9474;BME280;8865;47.636;7.692;2023-04-05T09:07:50;98619.84;;;6.84;62.67
9474;BME280;8865;47.636;7.692;2023-04-05T09:10:18;98616.66;;;7.06;60.51
9474;BME280;8865;47.636;7.692;2023-04-05T09:12:44;98614.63;;;7.63;60.53
9474;BME280;8865;47.636;7.692;2023-04-05T09:15:11;98622.72;;;8.10;56.97
9474;BME280;8865;47.636;7.692;2023-04-05T09:17:40;98607.75;;;8.25;54.56
9474;BME280;8865;47.636;7.692;2023-04-05T09:20:07;98615.31;;;8.53;52.57
9474;BME280;8865;47.636;7.692;2023-04-05T09:22:43;98613.03;;;8.97;55.00
9474;BME280;8865;47.636;7.692;2023-04-05T09:25:10;98612.28;;;9.30;50.73
9474;BME280;8865;47.636;7.692;2023-04-05T09:27:53;98604.88;;;9.94;50.38
9474;BME280;8865;47.636;7.692;2023-04-05T09:30:23;98611.69;;;10.63;51.39
9474;BME280;8865;47.636;7.692;2023-04-05T09:32:50;98605.63;;;11.16;47.88
9474;BME280;8865;47.636;7.692;2023-04-05T09:35:25;98606.56;;;11.57;45.13
9474;BME280;8865;47.636;7.692;2023-04-05T09:37:58;98603.69;;;11.91;42.19
9474;BME280;8865;47.636;7.692;2023-04-05T09:40:43;98606.09;;;12.64;40.78
9474;BME280;8865;47.636;7.692;2023-04-05T09:43:10;98606.63;;;13.55;41.37
9474;BME280;8865;47.636;7.692;2023-04-05T09:45:41;98611.44;;;14.81;39.80
9474;BME280;8865;47.636;7.692;2023-04-05T09:48:08;98599.63;;;16.08;36.47
9474;BME280;8865;47.636;7.692;2023-04-05T09:50:34;98594.28;;;17.66;33.44
9474;BME280;8865;47.636;7.692;2023-04-05T09:53:11;98597.94;;;19.45;29.88
9474;BME280;8865;47.636;7.692;2023-04-05T09:55:42;98587.81;;;21.53;27.35
9474;BME280;8865;47.636;7.692;2023-04-05T09:58:12;98586.56;;;23.47;24.30
9474;BME280;8865;47.636;7.692;2023-04-05T10:00:47;98579.78;;;25.01;22.35
9474;BME280;8865;47.636;7.692;2023-04-05T10:03:18;98575.69;;;25.67;21.13
9474;BME280;8865;47.636;7.692;2023-04-05T10:05:46;98573.72;;;27.33;18.96
9474;BME280;8865;47.636;7.692;2023-04-05T10:08:16;98577.88;;;27.88;16.82
9474;BME280;8865;47.636;7.692;2023-04-05T10:10:46;98569.19;;;28.38;17.12
9474;BME280;8865;47.636;7.692;2023-04-05T10:13:15;98563.59;;;28.85;16.63
9474;BME280;8865;47.636;7.692;2023-04-05T10:15:45;98564.47;;;29.59;16.11
9474;BME280;8865;47.636;7.692;2023-04-05T10:18:17;98565.34;;;29.82;15.76
9474;BME280;8865;47.636;7.692;2023-04-05T10:20:49;98558.63;;;29.84;15.28
9474;BME280;8865;47.636;7.692;2023-04-05T10:23:25;98557.34;;;30.14;14.94
9474;BME280;8865;47.636;7.692;2023-04-05T10:28:35;98563.75;;;30.52;15.21
9474;BME280;8865;47.636;7.692;2023-04-05T10:33:58;98563.03;;;30.94;14.64
9474;BME280;8865;47.636;7.692;2023-04-05T10:39:41;98551.06;;;29.64;15.75
9474;BME280;8865;47.636;7.692;2023-04-05T10:42:20;98548.72;;;29.51;15.75
9474;BME280;8865;47.636;7.692;2023-04-05T10:44:51;98552.53;;;29.94;15.63
9474;BME280;8865;47.636;7.692;2023-04-05T10:47:20;98551.03;;;29.81;15.27
9474;BME280;8865;47.636;7.692;2023-04-05T10:49:48;98552.59;;;30.49;15.26
9474;BME280;8865;47.636;7.692;2023-04-05T10:52:17;98554.19;;;30.72;14.70
9474;BME280;8865;47.636;7.692;2023-04-05T10:54:43;98556.41;;;28.45;15.12
9474;BME280;8865;47.636;7.692;2023-04-05T10:57:10;98559.38;;;26.97;16.28
9474;BME280;8865;47.636;7.692;2023-04-05T10:59:41;98557.44;;;28.44;15.65
9474;BME280;8865;47.636;7.692;2023-04-05T11:02:07;98549.28;;;29.19;14.97
9474;BME280;8865;47.636;7.692;2023-04-05T11:04:33;98546.59;;;28.85;15.58
9474;BME280;8865;47.636;7.692;2023-04-05T11:07:25;98549.47;;;30.35;14.77
9474;BME280;8865;47.636;7.692;2023-04-05T11:10:16;98549.38;;;30.52;14.49
9474;BME280;8865;47.636;7.692;2023-04-05T11:15:28;98549.22;;;31.28;13.21
9474;BME280;8865;47.636;7.692;2023-04-05T11:18:10;98548.19;;;31.34;14.35
9474;BME280;8865;47.636;7.692;2023-04-05T11:23:11;98543.81;;;31.28;14.32
9474;BME280;8865;47.636;7.692;2023-04-05T11:25:38;98540.50;;;32.17;13.20
9474;BME280;8865;47.636;7.692;2023-04-05T11:28:05;98540.25;;;32.34;13.02
9474;BME280;8865;47.636;7.692;2023-04-05T11:33:52;98540.78;;;32.36;13.29
9474;BME280;8865;47.636;7.692;2023-04-05T11:36:53;98532.34;;;32.12;13.04
9474;BME280;8865;47.636;7.692;2023-04-05T11:41:58;98536.28;;;32.78;12.33
9474;BME280;8865;47.636;7.692;2023-04-05T11:44:24;98529.91;;;32.10;12.86
9474;BME280;8865;47.636;7.692;2023-04-05T11:46:54;98520.44;;;32.18;12.28
9474;BME280;8865;47.636;7.692;2023-04-05T11:49:21;98527.06;;;32.73;12.35
9474;BME280;8865;47.636;7.692;2023-04-05T11:51:52;98523.69;;;32.20;12.63
9474;BME280;8865;47.636;7.692;2023-04-05T11:54:31;98512.25;;;31.44;13.08
9474;BME280;8865;47.636;7.692;2023-04-05T11:56:59;98515.28;;;32.16;12.56
9474;BME280;8865;47.636;7.692;2023-04-05T11:59:32;98515.00;;;32.13;12.38
9474;BME280;8865;47.636;7.692;2023-04-05T12:02:00;98514.69;;;32.04;12.34
9474;BME280;8865;47.636;7.692;2023-04-05T12:04:26;98508.88;;;32.69;14.37
9474;BME280;8865;47.636;7.692;2023-04-05T12:07:27;98503.44;;;32.69;12.23
9474;BME280;8865;47.636;7.692;2023-04-05T12:10:09;98504.50;;;32.99;11.80
9474;BME280;8865;47.636;7.692;2023-04-05T12:12:39;98493.28;;;32.02;11.76
9474;BME280;8865;47.636;7.692;2023-04-05T12:15:08;98503.56;;;31.95;12.61
9474;BME280;8865;47.636;7.692;2023-04-05T12:17:45;98491.16;;;32.25;11.97
9474;BME280;8865;47.636;7.692;2023-04-05T12:20:13;98487.41;;;33.03;11.70
9474;BME280;8865;47.636;7.692;2023-04-05T12:22:42;98481.88;;;33.55;12.08
9474;BME280;8865;47.636;7.692;2023-04-05T12:25:09;98493.81;;;33.54;12.76
9474;BME280;8865;47.636;7.692;2023-04-05T12:27:35;98483.13;;;34.33;11.52
9474;BME280;8865;47.636;7.692;2023-04-05T12:30:10;98484.41;;;33.25;12.32
9474;BME280;8865;47.636;7.692;2023-04-05T12:32:52;98479.25;;;33.29;11.21
9474;BME280;8865;47.636;7.692;2023-04-05T12:35:28;98477.97;;;33.71;11.61
9474;BME280;8865;47.636;7.692;2023-04-05T12:37:58;98478.91;;;33.46;11.56
9474;BME280;8865;47.636;7.692;2023-04-05T12:40:26;98476.28;;;33.96;12.50
9474;BME280;8865;47.636;7.692;2023-04-05T12:43:00;98475.69;;;34.04;12.73
9474;BME280;8865;47.636;7.692;2023-04-05T12:45:26;98464.94;;;34.23;11.91
9474;BME280;8865;47.636;7.692;2023-04-05T12:47:58;98470.88;;;34.65;11.56
9474;BME280;8865;47.636;7.692;2023-04-05T12:50:27;98476.28;;;34.41;11.40
9474;BME280;8865;47.636;7.692;2023-04-05T12:52:54;98466.50;;;33.95;12.44
9474;BME280;8865;47.636;7.692;2023-04-05T12:55:21;98459.25;;;33.75;13.47
9474;BME280;8865;47.636;7.692;2023-04-05T12:57:57;98458.09;;;34.36;11.15
9474;BME280;8865;47.636;7.692;2023-04-05T13:00:25;98452.25;;;34.53;12.18
9474;BME280;8865;47.636;7.692;2023-04-05T13:02:53;98441.53;;;34.62;11.12
9474;BME280;8865;47.636;7.692;2023-04-05T13:05:24;98447.03;;;33.77;11.91
9474;BME280;8865;47.636;7.692;2023-04-05T13:07:50;98439.28;;;34.00;12.18
9474;BME280;8865;47.636;7.692;2023-04-05T13:10:21;98434.81;;;33.75;12.53
9474;BME280;8865;47.636;7.692;2023-04-05T13:12:48;98440.91;;;34.41;11.63
9474;BME280;8865;47.636;7.692;2023-04-05T13:15:15;98435.31;;;34.22;11.03
9474;BME280;8865;47.636;7.692;2023-04-05T13:17:43;98436.25;;;34.07;11.61
9474;BME280;8865;47.636;7.692;2023-04-05T13:20:10;98435.06;;;33.78;12.11
9474;BME280;8865;47.636;7.692;2023-04-05T13:22:37;98431.78;;;34.21;11.85
9474;BME280;8865;47.636;7.692;2023-04-05T13:25:04;98430.06;;;33.41;12.34
9474;BME280;8865;47.636;7.692;2023-04-05T13:27:30;98425.19;;;33.33;12.55
9474;BME280;8865;47.636;7.692;2023-04-05T13:29:56;98423.34;;;33.83;12.58
9474;BME280;8865;47.636;7.692;2023-04-05T13:32:22;98424.69;;;33.86;12.32
9474;BME280;8865;47.636;7.692;2023-04-05T13:34:48;98428.94;;;34.42;11.43
9474;BME280;8865;47.636;7.692;2023-04-05T13:37:15;98420.06;;;34.60;12.71
9474;BME280;8865;47.636;7.692;2023-04-05T13:39:41;98426.22;;;34.42;11.37
9474;BME280;8865;47.636;7.692;2023-04-05T13:42:07;98419.63;;;34.48;11.99
9474;BME280;8865;47.636;7.692;2023-04-05T13:44:33;98417.56;;;33.95;12.17
9474;BME280;8865;47.636;7.692;2023-04-05T13:46:59;98417.38;;;34.26;12.83
9474;BME280;8865;47.636;7.692;2023-04-05T13:49:25;98417.34;;;33.86;12.28
9474;BME280;8865;47.636;7.692;2023-04-05T13:51:51;98416.63;;;33.65;11.63
9474;BME280;8865;47.636;7.692;2023-04-05T13:54:17;98414.53;;;33.52;12.36
9474;BME280;8865;47.636;7.692;2023-04-05T13:56:44;98404.78;;;33.95;12.33
9474;BME280;8865;47.636;7.692;2023-04-05T13:59:10;98412.88;;;34.45;12.40